createdAt,value
2023-01-22T00:02:41.197Z,2.40
2023-01-22T00:05:43.629Z,1.88
2023-01-22T00:08:48.846Z,1.90
2023-01-22T00:11:51.952Z,1.75
2023-01-22T00:14:54.741Z,1.70
2023-01-22T00:17:57.069Z,1.38
2023-01-22T00:21:00.476Z,1.60
2023-01-22T00:24:02.782Z,2.38
2023-01-22T00:27:05.392Z,1.80
2023-01-22T00:30:10.487Z,2.05
2023-01-22T00:33:14.223Z,1.90
2023-01-22T00:36:20.013Z,1.35
2023-01-22T00:39:23.835Z,1.17
2023-01-22T00:42:27.025Z,2.45
2023-01-22T00:45:30.773Z,2.50
2023-01-22T00:48:33.663Z,4.20
2023-01-22T00:51:38.139Z,3.88
2023-01-22T00:54:40.236Z,4.72
2023-01-22T00:57:43.064Z,4.65
2023-01-22T01:00:45.696Z,3.95
2023-01-22T01:03:48.232Z,1.90
2023-01-22T01:06:50.750Z,1.63
2023-01-22T01:09:53.707Z,2.95
2023-01-22T01:12:56.101Z,3.10
2023-01-22T01:16:04.364Z,3.85
2023-01-22T01:19:10.821Z,4.38
2023-01-22T01:22:13.741Z,4.20
2023-01-22T01:25:16.344Z,6.00
2023-01-22T01:28:19.323Z,5.00
2023-01-22T01:31:23.912Z,6.22
2023-01-22T01:37:28.314Z,5.78
2023-01-22T01:40:31.523Z,5.90
2023-01-22T01:43:34.510Z,6.53
2023-01-22T01:46:43.864Z,6.53
2023-01-22T01:49:53.367Z,5.30
2023-01-22T01:52:59.445Z,5.88
2023-01-22T01:56:03.694Z,4.38
2023-01-22T02:02:12.026Z,5.00
2023-01-22T02:05:15.358Z,4.63
2023-01-22T02:08:18.135Z,2.60
2023-01-22T02:11:23.057Z,6.45
2023-01-22T02:14:29.954Z,4.72
2023-01-22T02:17:33.706Z,2.72
2023-01-22T02:20:41.230Z,5.70
2023-01-22T02:23:43.807Z,4.78
2023-01-22T02:26:46.979Z,3.75
2023-01-22T02:29:54.400Z,4.82
2023-01-22T02:32:56.596Z,4.75
2023-01-22T02:36:01.249Z,2.03
2023-01-22T02:39:04.123Z,3.15
2023-01-22T02:42:08.747Z,5.10
2023-01-22T02:45:14.037Z,2.65
2023-01-22T02:48:17.275Z,2.33
2023-01-22T02:51:19.797Z,4.57
2023-01-22T02:54:25.708Z,2.97
2023-01-22T02:57:30.530Z,2.40
2023-01-22T03:00:33.042Z,2.83
2023-01-22T03:03:35.590Z,2.53
2023-01-22T03:06:42.942Z,2.05
2023-01-22T03:09:48.164Z,2.45
2023-01-22T03:13:09.471Z,1.58
2023-01-22T03:16:30.806Z,1.75
2023-01-22T03:19:52.614Z,1.27
2023-01-22T03:22:56.370Z,1.80
2023-01-22T03:25:58.948Z,1.52
2023-01-22T03:29:02.704Z,2.47
2023-01-22T03:32:07.112Z,2.42
2023-01-22T03:35:11.856Z,3.60
2023-01-22T03:38:30.903Z,2.53
2023-01-22T03:41:34.417Z,1.75
2023-01-22T03:44:37.762Z,2.90
2023-01-22T03:47:40.072Z,3.15
2023-01-22T03:50:58.557Z,3.72
2023-01-22T03:54:01.093Z,4.13
2023-01-22T03:57:03.584Z,4.55
2023-01-22T04:00:09.357Z,3.25
2023-01-22T04:03:15.430Z,2.67
2023-01-22T04:06:20.629Z,2.03
2023-01-22T04:09:24.102Z,3.45
2023-01-22T04:12:26.282Z,3.95
2023-01-22T04:16:21.049Z,1.30
2023-01-22T04:19:44.991Z,2.28
2023-01-22T04:23:07.581Z,1.92
2023-01-22T04:26:11.205Z,2.60
2023-01-22T04:29:14.493Z,1.05
2023-01-22T04:32:17.687Z,1.13
2023-01-22T04:35:36.145Z,2.60
2023-01-22T04:38:39.424Z,1.75
2023-01-22T04:41:41.958Z,1.10
2023-01-22T04:44:44.662Z,1.90
2023-01-22T04:47:49.204Z,0.90
2023-01-22T04:50:55.959Z,2.42
2023-01-22T04:54:01.191Z,1.67
2023-01-22T04:57:04.266Z,2.33
2023-01-22T05:00:07.738Z,2.13
2023-01-22T05:03:10.673Z,2.80
2023-01-22T05:06:13.774Z,1.65
2023-01-22T05:09:16.538Z,3.67
2023-01-22T05:12:27.680Z,0.80
2023-01-22T05:15:30.544Z,1.30
2023-01-22T05:18:38.758Z,0.73
2023-01-22T05:21:42.241Z,0.75
2023-01-22T05:24:45.090Z,0.70
2023-01-22T05:27:49.180Z,0.80
2023-01-22T05:31:05.373Z,0.70
2023-01-22T05:34:21.808Z,0.70
2023-01-22T05:37:23.832Z,0.50
2023-01-22T05:40:27.221Z,1.35
2023-01-22T05:43:29.555Z,1.15
2023-01-22T05:46:37.543Z,1.70
2023-01-22T05:50:12.379Z,0.90
2023-01-22T05:53:15.771Z,1.20
2023-01-22T05:56:19.240Z,0.95
2023-01-22T05:59:21.623Z,1.23
2023-01-22T06:02:30.605Z,1.10
2023-01-22T06:05:34.396Z,0.70
2023-01-22T06:08:42.147Z,0.90
2023-01-22T06:11:44.714Z,0.63
2023-01-22T06:14:47.482Z,0.70
2023-01-22T06:17:50.030Z,0.68
2023-01-22T06:20:52.669Z,0.82
2023-01-22T06:23:55.672Z,0.98
2023-01-22T06:26:58.616Z,0.80
2023-01-22T06:30:11.517Z,0.90
2023-01-22T06:33:13.700Z,0.70
2023-01-22T06:36:17.004Z,1.38
2023-01-22T06:39:19.829Z,1.27
2023-01-22T06:42:37.220Z,0.80
2023-01-22T06:45:40.003Z,1.13
2023-01-22T06:48:44.750Z,0.93
2023-01-22T06:51:47.192Z,1.48
2023-01-22T06:54:50.166Z,1.08
2023-01-22T06:57:57.327Z,0.73
2023-01-22T07:01:01.768Z,0.63
2023-01-22T07:04:04.059Z,1.48
2023-01-22T07:07:06.963Z,1.02
2023-01-22T07:10:10.799Z,1.10
2023-01-22T07:13:16.171Z,1.25
2023-01-22T07:16:18.335Z,0.60
2023-01-22T07:19:20.722Z,0.88
2023-01-22T07:22:23.225Z,0.70
2023-01-22T07:25:30.761Z,1.10
2023-01-22T07:28:33.190Z,1.90
2023-01-22T07:31:35.984Z,0.82
2023-01-22T07:34:38.519Z,1.50
2023-01-22T07:37:40.834Z,0.75
2023-01-22T07:40:42.865Z,1.10
2023-01-22T07:43:45.205Z,0.70
2023-01-22T07:46:47.435Z,0.80
2023-01-22T07:49:49.902Z,0.93
2023-01-22T07:52:52.995Z,1.50
2023-01-22T07:55:55.781Z,1.08
2023-01-22T07:58:58.124Z,0.98
2023-01-22T08:02:03.237Z,0.90
2023-01-22T08:05:07.596Z,0.90
2023-01-22T08:08:18.342Z,1.40
2023-01-22T08:11:20.978Z,1.00
2023-01-22T08:14:23.712Z,0.60
2023-01-22T08:17:26.064Z,1.38
2023-01-22T08:20:29.727Z,1.17
2023-01-22T08:23:31.852Z,1.15
2023-01-22T08:26:35.842Z,0.68
2023-01-22T08:29:37.973Z,0.73
2023-01-22T08:32:45.567Z,0.88
2023-01-22T08:35:48.371Z,0.70
2023-01-22T08:38:51.584Z,1.08
2023-01-22T08:41:58.028Z,1.17
2023-01-22T08:45:01.109Z,1.17
2023-01-22T08:48:03.154Z,1.08
2023-01-22T08:51:06.353Z,0.90
2023-01-22T08:54:08.713Z,1.67
2023-01-22T08:57:11.313Z,0.98
2023-01-22T09:00:14.401Z,0.98
2023-01-22T09:03:18.497Z,0.88
2023-01-22T09:06:20.475Z,0.85
2023-01-22T09:09:23.123Z,0.95
2023-01-22T09:12:26.814Z,0.95
2023-01-22T09:15:29.373Z,1.20
2023-01-22T09:18:31.469Z,0.70
2023-01-22T09:21:34.175Z,0.80
2023-01-22T09:24:36.601Z,0.68
2023-01-22T09:27:39.451Z,1.02
2023-01-22T09:30:43.059Z,1.13
2023-01-22T09:33:45.699Z,0.80
2023-01-22T09:36:48.097Z,1.38
2023-01-22T09:39:53.541Z,0.70
2023-01-22T09:43:07.451Z,0.98
2023-01-22T09:46:23.746Z,1.00
2023-01-22T09:50:00.972Z,1.00
2023-01-22T09:53:07.663Z,0.65
2023-01-22T09:56:21.558Z,0.60
2023-01-22T09:59:27.469Z,0.70
2023-01-22T10:02:49.346Z,0.80
2023-01-22T10:05:58.213Z,1.25
2023-01-22T10:09:17.011Z,0.63
2023-01-22T10:12:20.064Z,0.52
2023-01-22T10:15:24.875Z,1.00
2023-01-22T10:18:43.447Z,0.93
2023-01-22T10:21:49.868Z,0.98
2023-01-22T10:24:53.936Z,0.90
2023-01-22T10:28:01.346Z,0.80
2023-01-22T10:31:03.907Z,0.60
2023-01-22T10:34:21.730Z,0.70
2023-01-22T10:37:24.002Z,0.50
2023-01-22T10:40:39.170Z,0.68
2023-01-22T10:43:41.447Z,0.90
2023-01-22T10:46:44.599Z,0.93
2023-01-22T10:49:49.589Z,0.50
2023-01-22T10:56:03.947Z,0.40
2023-01-22T10:59:48.024Z,0.75
2023-01-22T11:02:51.516Z,0.50
2023-01-22T11:05:58.233Z,0.57
2023-01-22T11:09:16.222Z,0.50
2023-01-22T11:12:30.476Z,0.47
2023-01-22T11:15:56.422Z,1.08
2023-01-22T11:19:06.558Z,0.60
2023-01-22T11:22:27.788Z,1.17
2023-01-22T11:25:38.119Z,0.82
2023-01-22T11:28:54.638Z,1.00
2023-01-22T11:35:37.240Z,0.47
2023-01-22T11:38:51.520Z,0.82
2023-01-22T11:42:18.008Z,1.27
2023-01-22T11:45:48.337Z,0.63
2023-01-22T11:49:08.093Z,1.38
2023-01-22T11:52:31.345Z,1.45
2023-01-22T11:56:00.769Z,1.17
2023-01-22T11:59:15.028Z,1.15
2023-01-22T12:02:29.973Z,0.90
2023-01-22T12:05:58.302Z,1.10
2023-01-22T12:09:00.702Z,0.77
2023-01-22T12:12:22.679Z,2.13
2023-01-22T12:15:38.043Z,2.90
2023-01-22T12:19:33.783Z,1.17
2023-01-22T12:23:08.547Z,2.15
2023-01-22T12:26:19.986Z,1.60
2023-01-22T12:29:31.044Z,1.20
2023-01-22T12:32:38.405Z,2.00
2023-01-22T12:35:42.023Z,0.80
2023-01-22T12:38:44.992Z,2.25
2023-01-22T12:42:08.753Z,2.13
2023-01-22T12:45:46.579Z,2.63
2023-01-22T12:48:57.848Z,2.38
2023-01-22T12:52:00.948Z,2.35
2023-01-22T12:55:21.900Z,2.60
2023-01-22T12:58:27.355Z,1.83
2023-01-22T13:01:35.776Z,0.80
2023-01-22T13:04:38.145Z,0.50
2023-01-22T13:07:44.312Z,1.80
2023-01-22T13:11:07.163Z,1.40
2023-01-22T13:14:21.407Z,2.70
2023-01-22T13:17:37.871Z,0.93
2023-01-22T13:21:04.136Z,0.88
2023-01-22T13:24:14.720Z,2.15
2023-01-22T13:27:28.484Z,0.68
2023-01-22T13:30:32.837Z,0.73
2023-01-22T13:33:35.013Z,1.08
2023-01-22T13:36:39.862Z,0.57
2023-01-22T13:42:46.734Z,1.23
2023-01-22T13:45:50.739Z,1.27
2023-01-22T13:49:16.378Z,1.27
2023-01-22T13:52:21.999Z,0.80
2023-01-22T13:55:29.842Z,1.45
2023-01-22T13:58:48.375Z,1.50
2023-01-22T14:01:51.729Z,1.00
2023-01-22T14:04:55.313Z,0.77
2023-01-22T14:08:11.895Z,1.45
2023-01-22T14:11:14.441Z,1.10
2023-01-22T14:14:19.345Z,1.10
2023-01-22T14:17:29.730Z,1.60
2023-01-22T14:20:32.637Z,1.83
2023-01-22T14:23:35.766Z,1.58
2023-01-22T14:26:38.517Z,1.65
2023-01-22T14:29:44.591Z,1.33
2023-01-22T14:32:47.663Z,0.80
2023-01-22T14:35:50.303Z,1.35
2023-01-22T14:38:55.694Z,1.20
2023-01-22T14:41:57.911Z,0.82
2023-01-22T14:45:01.031Z,0.57
2023-01-22T14:48:04.360Z,0.70
2023-01-22T14:51:12.221Z,1.57
2023-01-22T14:54:14.699Z,0.80
2023-01-22T14:57:24.248Z,0.60
2023-01-22T15:00:29.599Z,0.70
2023-01-22T15:03:41.430Z,0.63
2023-01-22T15:06:43.859Z,0.68
2023-01-22T15:09:47.308Z,0.50
2023-01-22T15:12:51.508Z,0.70
2023-01-22T15:15:55.300Z,0.63
2023-01-22T15:19:00.933Z,0.77
2023-01-22T15:22:05.863Z,1.38
2023-01-22T15:25:19.248Z,1.05
2023-01-22T15:28:35.887Z,0.90
2023-01-22T15:31:42.381Z,0.60
2023-01-22T15:34:54.382Z,0.60
2023-01-22T15:38:05.924Z,0.80
2023-01-22T15:41:27.458Z,0.90
2023-01-22T15:44:30.239Z,1.45
2023-01-22T15:47:34.074Z,0.80
2023-01-22T15:50:36.951Z,0.90
2023-01-22T15:53:48.028Z,0.60
2023-01-22T15:56:51.044Z,0.70
2023-01-22T15:59:53.404Z,0.45
2023-01-22T16:02:56.704Z,0.70
2023-01-22T16:06:20.302Z,0.60
2023-01-22T16:09:22.839Z,0.57
2023-01-22T16:12:25.711Z,0.57
2023-01-22T16:15:28.528Z,0.60
2023-01-22T16:18:33.471Z,0.77
2023-01-22T16:21:36.597Z,0.60
2023-01-22T16:24:39.454Z,1.23
2023-01-22T16:27:42.078Z,0.95
2023-01-22T16:30:44.601Z,0.57
2023-01-22T16:33:54.755Z,0.70
2023-01-22T16:36:57.829Z,0.70
2023-01-22T16:40:00.990Z,0.40
2023-01-22T16:43:03.998Z,0.70
2023-01-22T16:46:07.304Z,0.53
2023-01-22T16:49:25.296Z,0.60
2023-01-22T16:52:28.235Z,1.85
2023-01-22T16:55:30.791Z,1.23
2023-01-22T16:58:34.242Z,1.02
2023-01-22T17:01:39.044Z,1.63
2023-01-22T17:04:43.680Z,0.70
2023-01-22T17:07:45.808Z,0.60
2023-01-22T17:10:49.489Z,0.70
2023-01-22T17:13:52.620Z,0.77
2023-01-22T17:16:55.597Z,0.60
2023-01-22T17:19:57.962Z,0.85
2023-01-22T17:23:01.141Z,0.80
2023-01-22T17:26:12.069Z,0.70
2023-01-22T17:29:14.803Z,1.58
2023-01-22T17:32:17.158Z,0.90
2023-01-22T17:35:20.554Z,1.15
2023-01-22T17:38:25.278Z,1.38
2023-01-22T17:44:30.301Z,1.13
2023-01-22T17:47:33.301Z,1.10
2023-01-22T17:50:35.736Z,0.70
2023-01-22T17:53:42.650Z,0.90
2023-01-22T17:56:48.623Z,0.70
2023-01-22T17:59:51.746Z,0.93
2023-01-22T18:02:53.717Z,0.77
2023-01-22T18:05:56.957Z,0.77
2023-01-22T18:08:59.184Z,0.90
2023-01-22T18:12:03.031Z,0.57
2023-01-22T18:15:05.871Z,0.60
2023-01-22T18:18:09.039Z,0.82
2023-01-22T18:21:19.141Z,0.98
2023-01-22T18:24:23.198Z,1.42
2023-01-22T18:27:25.698Z,0.70
2023-01-22T18:30:28.175Z,1.80
2023-01-22T18:33:30.936Z,0.82
2023-01-22T18:36:37.301Z,1.48
2023-01-22T18:39:41.140Z,0.73
2023-01-22T18:42:43.891Z,1.55
2023-01-22T18:45:46.222Z,0.90
2023-01-22T18:48:58.077Z,0.90
2023-01-22T18:52:01.760Z,1.50
2023-01-22T18:55:04.764Z,0.80
2023-01-22T18:58:11.558Z,0.80
2023-01-22T19:01:24.763Z,0.65
2023-01-22T19:04:28.891Z,0.70
2023-01-22T19:07:33.034Z,0.60
2023-01-22T19:10:35.131Z,0.70
2023-01-22T19:13:39.831Z,0.68
2023-01-22T19:16:45.128Z,0.63
2023-01-22T19:19:48.132Z,1.52
2023-01-22T19:22:50.837Z,0.70
2023-01-22T19:25:57.181Z,0.60
2023-01-22T19:29:01.806Z,0.90
2023-01-22T19:32:04.943Z,0.82
2023-01-22T19:35:07.545Z,0.80
2023-01-22T19:38:10.940Z,0.90
2023-01-22T19:41:13.752Z,0.80
2023-01-22T19:44:17.313Z,1.00
2023-01-22T19:47:20.601Z,1.10
2023-01-22T19:50:25.365Z,0.82
2023-01-22T19:56:33.655Z,0.60
2023-01-22T19:59:36.072Z,1.77
2023-01-22T20:02:38.463Z,1.38
2023-01-22T20:05:43.445Z,1.83
2023-01-22T20:08:52.287Z,1.15
2023-01-22T20:11:56.253Z,0.70
2023-01-22T20:18:01.442Z,0.85
2023-01-22T20:21:04.445Z,1.27
2023-01-22T20:24:07.281Z,1.15
2023-01-22T20:27:10.611Z,0.75
2023-01-22T20:30:13.142Z,1.15
2023-01-22T20:33:15.798Z,2.08
2023-01-22T20:36:20.381Z,1.33
2023-01-22T20:39:23.400Z,0.90
2023-01-22T20:42:25.747Z,0.93
2023-01-22T20:45:28.361Z,0.90
2023-01-22T20:48:32.030Z,1.00
2023-01-22T20:51:34.693Z,0.80
2023-01-22T20:54:45.891Z,0.93
2023-01-22T20:57:53.680Z,1.20
2023-01-22T21:00:56.798Z,1.15
2023-01-22T21:04:00.754Z,1.10
2023-01-22T21:07:03.240Z,0.93
2023-01-22T21:10:06.652Z,1.50
2023-01-22T21:13:08.790Z,0.82
2023-01-22T21:16:21.159Z,1.17
2023-01-22T21:19:26.163Z,0.80
2023-01-22T21:22:28.869Z,1.00
2023-01-22T21:25:31.379Z,1.10
2023-01-22T21:28:34.296Z,0.77
2023-01-22T21:31:37.300Z,0.68
2023-01-22T21:34:40.677Z,1.10
2023-01-22T21:37:42.938Z,1.05
2023-01-22T21:40:46.729Z,0.90
2023-01-22T21:44:07.823Z,0.93
2023-01-22T21:47:10.439Z,0.98
2023-01-22T21:50:13.186Z,1.00
2023-01-22T21:53:16.083Z,0.70
2023-01-22T21:56:18.605Z,0.82
2023-01-22T21:59:21.585Z,0.70
2023-01-22T22:02:24.754Z,0.93
2023-01-22T22:05:28.478Z,0.90
2023-01-22T22:08:31.110Z,0.88
2023-01-22T22:11:33.925Z,1.15
2023-01-22T22:14:36.226Z,0.77
2023-01-22T22:17:39.121Z,0.90
2023-01-22T22:20:41.318Z,1.17
2023-01-22T22:23:45.015Z,1.33
2023-01-22T22:26:46.892Z,1.00
2023-01-22T22:29:52.939Z,0.90
2023-01-22T22:32:54.810Z,0.98
2023-01-22T22:35:57.209Z,1.00
2023-01-22T22:39:01.149Z,0.90
2023-01-22T22:42:04.097Z,1.02
2023-01-22T22:45:06.556Z,0.90
2023-01-22T22:48:08.837Z,1.30
2023-01-22T22:51:22.705Z,1.05
2023-01-22T22:54:25.403Z,1.15
2023-01-22T22:57:27.785Z,1.08
2023-01-22T23:00:30.554Z,1.63
2023-01-22T23:03:33.795Z,0.93
2023-01-22T23:06:36.819Z,0.77
2023-01-22T23:09:45.810Z,0.88
2023-01-22T23:12:48.989Z,2.15
2023-01-22T23:15:51.582Z,1.25
2023-01-22T23:18:56.538Z,0.88
2023-01-22T23:22:00.519Z,1.15
2023-01-22T23:25:02.770Z,0.82
2023-01-22T23:28:05.308Z,1.05
2023-01-22T23:31:14.426Z,0.60
2023-01-22T23:34:19.795Z,0.85
2023-01-22T23:37:23.091Z,1.50
2023-01-22T23:40:25.481Z,1.05
2023-01-22T23:43:28.762Z,0.80
2023-01-22T23:46:31.104Z,0.90
2023-01-22T23:49:33.543Z,0.93
2023-01-22T23:52:36.859Z,0.80
2023-01-22T23:55:40.355Z,1.30
2023-01-22T23:58:43.500Z,1.23
